sensor_id;sensor_type;location;lat;lon;timestamp;P1;durP1;ratioP1;P2;durP2;ratioP2
74957;SDS011;63741;42.624;26.276;2022-12-26T00:00:56;9.27;;;5.63;;
74957;SDS011;63741;42.624;26.276;2022-12-26T00:03:24;10.95;;;5.63;;
74957;SDS011;63741;42.624;26.276;2022-12-26T00:05:52;11.68;;;5.63;;
74957;SDS011;63741;42.624;26.276;2022-12-26T00:08:19;4.80;;;3.30;;
74957;SDS011;63741;42.624;26.276;2022-12-26T00:10:45;6.13;;;3.10;;
74957;SDS011;63741;42.624;26.276;2022-12-26T00:13:13;14.30;;;5.18;;
74957;SDS011;63741;42.624;26.276;2022-12-26T00:16:04;9.27;;;5.53;;
74957;SDS011;63741;42.624;26.276;2022-12-26T00:18:33;10.25;;;6.00;;
74957;SDS011;63741;42.624;26.276;2022-12-26T00:21:00;14.88;;;6.32;;
74957;SDS011;63741;42.624;26.276;2022-12-26T00:23:27;9.63;;;5.80;;
74957;SDS011;63741;42.624;26.276;2022-12-26T00:25:54;8.75;;;5.55;;
74957;SDS011;63741;42.624;26.276;2022-12-26T00:28:21;11.88;;;5.20;;
74957;SDS011;63741;42.624;26.276;2022-12-26T00:30:48;10.40;;;5.82;;
74957;SDS011;63741;42.624;26.276;2022-12-26T00:33:15;10.18;;;6.10;;
74957;SDS011;63741;42.624;26.276;2022-12-26T00:35:42;10.18;;;5.43;;
74957;SDS011;63741;42.624;26.276;2022-12-26T00:38:09;9.27;;;5.43;;
74957;SDS011;63741;42.624;26.276;2022-12-26T00:40:35;9.02;;;4.82;;
74957;SDS011;63741;42.624;26.276;2022-12-26T00:43:08;10.63;;;4.72;;
74957;SDS011;63741;42.624;26.276;2022-12-26T00:45:35;7.82;;;4.47;;
74957;SDS011;63741;42.624;26.276;2022-12-26T00:48:02;12.75;;;5.97;;
74957;SDS011;63741;42.624;26.276;2022-12-26T00:50:29;14.55;;;6.53;;
74957;SDS011;63741;42.624;26.276;2022-12-26T00:53:00;11.30;;;5.80;;
74957;SDS011;63741;42.624;26.276;2022-12-26T00:55:27;10.13;;;5.57;;
74957;SDS011;63741;42.624;26.276;2022-12-26T00:57:54;13.48;;;6.57;;
74957;SDS011;63741;42.624;26.276;2022-12-26T01:00:21;8.73;;;5.20;;
74957;SDS011;63741;42.624;26.276;2022-12-26T01:02:48;6.40;;;3.78;;
74957;SDS011;63741;42.624;26.276;2022-12-26T01:05:15;5.97;;;2.80;;
74957;SDS011;63741;42.624;26.276;2022-12-26T01:07:42;4.88;;;2.65;;
74957;SDS011;63741;42.624;26.276;2022-12-26T01:10:29;6.45;;;2.80;;
74957;SDS011;63741;42.624;26.276;2022-12-26T01:12:56;5.30;;;3.15;;
74957;SDS011;63741;42.624;26.276;2022-12-26T01:15:23;6.75;;;3.35;;
74957;SDS011;63741;42.624;26.276;2022-12-26T01:17:50;6.40;;;3.92;;
74957;SDS011;63741;42.624;26.276;2022-12-26T01:20:17;8.88;;;3.90;;
74957;SDS011;63741;42.624;26.276;2022-12-26T01:22:44;9.20;;;3.88;;
74957;SDS011;63741;42.624;26.276;2022-12-26T01:25:11;7.43;;;3.30;;
74957;SDS011;63741;42.624;26.276;2022-12-26T01:27:38;5.38;;;3.05;;
74957;SDS011;63741;42.624;26.276;2022-12-26T01:30:05;7.68;;;3.42;;
74957;SDS011;63741;42.624;26.276;2022-12-26T01:32:32;7.00;;;4.00;;
74957;SDS011;63741;42.624;26.276;2022-12-26T01:34:59;7.88;;;4.50;;
74957;SDS011;63741;42.624;26.276;2022-12-26T01:37:26;8.80;;;5.45;;
74957;SDS011;63741;42.624;26.276;2022-12-26T01:39:53;8.73;;;5.18;;
74957;SDS011;63741;42.624;26.276;2022-12-26T01:42:21;9.90;;;5.47;;
74957;SDS011;63741;42.624;26.276;2022-12-26T01:50:36;8.98;;;5.90;;
74957;SDS011;63741;42.624;26.276;2022-12-26T01:53:08;13.55;;;6.95;;
74957;SDS011;63741;42.624;26.276;2022-12-26T01:55:49;12.18;;;6.53;;
74957;SDS011;63741;42.624;26.276;2022-12-26T01:58:26;13.02;;;5.78;;
74957;SDS011;63741;42.624;26.276;2022-12-26T02:00:58;10.85;;;5.78;;
74957;SDS011;63741;42.624;26.276;2022-12-26T02:03:27;8.98;;;5.03;;
74957;SDS011;63741;42.624;26.276;2022-12-26T02:06:13;9.32;;;5.47;;
74957;SDS011;63741;42.624;26.276;2022-12-26T02:08:41;12.60;;;6.50;;
74957;SDS011;63741;42.624;26.276;2022-12-26T02:11:20;11.20;;;5.57;;
74957;SDS011;63741;42.624;26.276;2022-12-26T02:13:50;10.80;;;4.72;;
74957;SDS011;63741;42.624;26.276;2022-12-26T02:16:18;15.13;;;6.50;;
74957;SDS011;63741;42.624;26.276;2022-12-26T02:18:45;17.08;;;8.00;;
74957;SDS011;63741;42.624;26.276;2022-12-26T02:30:22;12.52;;;5.93;;
74957;SDS011;63741;42.624;26.276;2022-12-26T02:57:09;15.90;;;7.15;;
74957;SDS011;63741;42.624;26.276;2022-12-26T03:00:02;13.05;;;6.82;;
74957;SDS011;63741;42.624;26.276;2022-12-26T03:02:54;11.30;;;5.75;;
74957;SDS011;63741;42.624;26.276;2022-12-26T03:05:41;7.72;;;4.90;;
74957;SDS011;63741;42.624;26.276;2022-12-26T03:09:19;8.02;;;4.00;;
74957;SDS011;63741;42.624;26.276;2022-12-26T03:11:48;6.18;;;3.20;;
74957;SDS011;63741;42.624;26.276;2022-12-26T03:14:49;7.28;;;3.25;;
74957;SDS011;63741;42.624;26.276;2022-12-26T03:20:13;5.70;;;3.80;;
74957;SDS011;63741;42.624;26.276;2022-12-26T03:25:19;6.90;;;3.72;;
74957;SDS011;63741;42.624;26.276;2022-12-26T03:28:11;5.70;;;2.50;;
74957;SDS011;63741;42.624;26.276;2022-12-26T03:30:39;4.85;;;2.47;;
74957;SDS011;63741;42.624;26.276;2022-12-26T03:33:32;7.28;;;3.05;;
74957;SDS011;63741;42.624;26.276;2022-12-26T03:44:54;6.82;;;3.55;;
74957;SDS011;63741;42.624;26.276;2022-12-26T03:47:55;6.30;;;3.03;;
74957;SDS011;63741;42.624;26.276;2022-12-26T03:50:49;9.77;;;3.10;;
74957;SDS011;63741;42.624;26.276;2022-12-26T03:53:49;9.48;;;3.67;;
74957;SDS011;63741;42.624;26.276;2022-12-26T03:56:43;6.88;;;3.70;;
74957;SDS011;63741;42.624;26.276;2022-12-26T03:59:43;7.53;;;3.90;;
74957;SDS011;63741;42.624;26.276;2022-12-26T04:05:25;6.68;;;3.15;;
74957;SDS011;63741;42.624;26.276;2022-12-26T04:08:22;8.43;;;3.42;;
74957;SDS011;63741;42.624;26.276;2022-12-26T04:16:57;4.88;;;2.28;;
74957;SDS011;63741;42.624;26.276;2022-12-26T04:22:21;7.22;;;4.00;;
74957;SDS011;63741;42.624;26.276;2022-12-26T04:25:15;8.75;;;4.40;;
74957;SDS011;63741;42.624;26.276;2022-12-26T04:28:16;7.75;;;3.78;;
74957;SDS011;63741;42.624;26.276;2022-12-26T04:33:57;8.68;;;4.30;;
74957;SDS011;63741;42.624;26.276;2022-12-26T04:36:50;9.18;;;4.32;;
74957;SDS011;63741;42.624;26.276;2022-12-26T04:39:41;6.88;;;4.00;;
74957;SDS011;63741;42.624;26.276;2022-12-26T04:42:30;8.95;;;4.10;;
74957;SDS011;63741;42.624;26.276;2022-12-26T04:45:17;10.60;;;3.78;;
74957;SDS011;63741;42.624;26.276;2022-12-26T04:47:46;9.35;;;3.60;;
74957;SDS011;63741;42.624;26.276;2022-12-26T04:50:34;18.60;;;5.00;;
74957;SDS011;63741;42.624;26.276;2022-12-26T04:53:01;17.65;;;5.28;;
74957;SDS011;63741;42.624;26.276;2022-12-26T04:55:29;11.60;;;4.97;;
74957;SDS011;63741;42.624;26.276;2022-12-26T04:57:58;7.75;;;3.88;;
74957;SDS011;63741;42.624;26.276;2022-12-26T05:00:26;6.80;;;3.58;;
74957;SDS011;63741;42.624;26.276;2022-12-26T05:02:54;6.20;;;3.28;;
74957;SDS011;63741;42.624;26.276;2022-12-26T05:06:00;6.40;;;2.80;;
74957;SDS011;63741;42.624;26.276;2022-12-26T05:08:46;82.50;;;17.77;;
74957;SDS011;63741;42.624;26.276;2022-12-26T05:11:33;61.65;;;14.52;;
74957;SDS011;63741;42.624;26.276;2022-12-26T05:14:00;31.00;;;9.55;;
74957;SDS011;63741;42.624;26.276;2022-12-26T05:16:27;24.17;;;7.60;;
74957;SDS011;63741;42.624;26.276;2022-12-26T05:19:14;21.30;;;5.78;;
74957;SDS011;63741;42.624;26.276;2022-12-26T05:22:01;20.15;;;6.28;;
74957;SDS011;63741;42.624;26.276;2022-12-26T05:24:48;27.15;;;11.30;;
74957;SDS011;63741;42.624;26.276;2022-12-26T05:27:36;33.25;;;14.50;;
74957;SDS011;63741;42.624;26.276;2022-12-26T05:30:24;44.53;;;20.75;;
74957;SDS011;63741;42.624;26.276;2022-12-26T05:32:51;43.92;;;22.38;;
74957;SDS011;63741;42.624;26.276;2022-12-26T05:35:36;42.35;;;21.80;;
74957;SDS011;63741;42.624;26.276;2022-12-26T05:38:04;38.97;;;18.92;;
74957;SDS011;63741;42.624;26.276;2022-12-26T05:40:31;25.83;;;14.18;;
74957;SDS011;63741;42.624;26.276;2022-12-26T05:42:58;26.65;;;14.20;;
74957;SDS011;63741;42.624;26.276;2022-12-26T05:45:25;38.65;;;21.02;;
74957;SDS011;63741;42.624;26.276;2022-12-26T05:47:59;93.68;;;40.47;;
74957;SDS011;63741;42.624;26.276;2022-12-26T05:50:27;34.03;;;14.82;;
74957;SDS011;63741;42.624;26.276;2022-12-26T05:52:55;13.25;;;6.80;;
74957;SDS011;63741;42.624;26.276;2022-12-26T05:55:24;21.50;;;12.77;;
74957;SDS011;63741;42.624;26.276;2022-12-26T05:57:51;27.20;;;13.57;;
74957;SDS011;63741;42.624;26.276;2022-12-26T06:00:18;19.88;;;10.90;;
74957;SDS011;63741;42.624;26.276;2022-12-26T06:02:45;26.67;;;9.68;;
74957;SDS011;63741;42.624;26.276;2022-12-26T06:05:12;25.45;;;12.10;;
74957;SDS011;63741;42.624;26.276;2022-12-26T06:07:39;11.70;;;6.07;;
74957;SDS011;63741;42.624;26.276;2022-12-26T06:10:06;8.90;;;5.15;;
74957;SDS011;63741;42.624;26.276;2022-12-26T06:12:33;9.05;;;4.35;;
74957;SDS011;63741;42.624;26.276;2022-12-26T06:15:01;6.97;;;3.67;;
74957;SDS011;63741;42.624;26.276;2022-12-26T06:17:29;8.40;;;4.35;;
74957;SDS011;63741;42.624;26.276;2022-12-26T06:19:56;7.88;;;5.38;;
74957;SDS011;63741;42.624;26.276;2022-12-26T06:22:23;13.48;;;5.57;;
74957;SDS011;63741;42.624;26.276;2022-12-26T06:24:50;10.38;;;5.95;;
74957;SDS011;63741;42.624;26.276;2022-12-26T06:27:17;12.90;;;7.60;;
74957;SDS011;63741;42.624;26.276;2022-12-26T06:29:44;31.38;;;16.48;;
74957;SDS011;63741;42.624;26.276;2022-12-26T06:32:11;17.33;;;8.15;;
74957;SDS011;63741;42.624;26.276;2022-12-26T06:34:38;24.05;;;6.15;;
74957;SDS011;63741;42.624;26.276;2022-12-26T06:39:26;9.98;;;5.38;;
74957;SDS011;63741;42.624;26.276;2022-12-26T06:41:53;14.90;;;7.60;;
74957;SDS011;63741;42.624;26.276;2022-12-26T06:44:21;10.20;;;6.40;;
74957;SDS011;63741;42.624;26.276;2022-12-26T06:46:48;13.00;;;6.00;;
74957;SDS011;63741;42.624;26.276;2022-12-26T06:49:15;12.32;;;5.22;;
74957;SDS011;63741;42.624;26.276;2022-12-26T06:51:42;12.90;;;5.53;;
74957;SDS011;63741;42.624;26.276;2022-12-26T06:54:10;16.40;;;5.93;;
74957;SDS011;63741;42.624;26.276;2022-12-26T06:56:37;11.07;;;7.57;;
74957;SDS011;63741;42.624;26.276;2022-12-26T06:59:04;16.33;;;7.65;;
74957;SDS011;63741;42.624;26.276;2022-12-26T07:01:32;14.02;;;8.18;;
74957;SDS011;63741;42.624;26.276;2022-12-26T07:04:00;10.70;;;7.05;;
74957;SDS011;63741;42.624;26.276;2022-12-26T07:06:30;17.80;;;10.48;;
74957;SDS011;63741;42.624;26.276;2022-12-26T07:08:59;22.15;;;12.25;;
74957;SDS011;63741;42.624;26.276;2022-12-26T07:11:29;30.52;;;16.58;;
74957;SDS011;63741;42.624;26.276;2022-12-26T07:13:58;23.42;;;11.95;;
74957;SDS011;63741;42.624;26.276;2022-12-26T07:16:26;25.10;;;12.68;;
74957;SDS011;63741;42.624;26.276;2022-12-26T07:18:54;21.85;;;10.60;;
74957;SDS011;63741;42.624;26.276;2022-12-26T07:21:22;24.00;;;12.77;;
74957;SDS011;63741;42.624;26.276;2022-12-26T07:23:50;28.95;;;13.70;;
74957;SDS011;63741;42.624;26.276;2022-12-26T07:26:17;17.63;;;9.63;;
74957;SDS011;63741;42.624;26.276;2022-12-26T07:28:44;12.40;;;7.07;;
74957;SDS011;63741;42.624;26.276;2022-12-26T07:31:16;9.95;;;5.30;;
74957;SDS011;63741;42.624;26.276;2022-12-26T07:33:48;24.35;;;10.82;;
74957;SDS011;63741;42.624;26.276;2022-12-26T07:36:20;17.85;;;7.47;;
74957;SDS011;63741;42.624;26.276;2022-12-26T07:38:48;13.40;;;4.60;;
74957;SDS011;63741;42.624;26.276;2022-12-26T07:41:14;13.95;;;4.75;;
74957;SDS011;63741;42.624;26.276;2022-12-26T07:44:00;8.52;;;4.18;;
74957;SDS011;63741;42.624;26.276;2022-12-26T07:46:27;6.93;;;3.80;;
74957;SDS011;63741;42.624;26.276;2022-12-26T07:48:54;7.75;;;3.80;;
74957;SDS011;63741;42.624;26.276;2022-12-26T07:51:21;10.57;;;4.50;;
74957;SDS011;63741;42.624;26.276;2022-12-26T07:53:48;15.13;;;3.85;;
74957;SDS011;63741;42.624;26.276;2022-12-26T07:56:15;7.10;;;3.97;;
74957;SDS011;63741;42.624;26.276;2022-12-26T07:58:42;6.30;;;2.97;;
74957;SDS011;63741;42.624;26.276;2022-12-26T08:01:09;10.05;;;4.95;;
74957;SDS011;63741;42.624;26.276;2022-12-26T08:03:36;7.97;;;5.07;;
74957;SDS011;63741;42.624;26.276;2022-12-26T08:06:04;13.95;;;8.52;;
74957;SDS011;63741;42.624;26.276;2022-12-26T08:08:31;16.33;;;5.55;;
74957;SDS011;63741;42.624;26.276;2022-12-26T08:10:58;8.98;;;5.10;;
74957;SDS011;63741;42.624;26.276;2022-12-26T08:13:30;7.72;;;3.05;;
74957;SDS011;63741;42.624;26.276;2022-12-26T08:15:57;8.38;;;3.65;;
74957;SDS011;63741;42.624;26.276;2022-12-26T08:18:26;14.88;;;5.72;;
74957;SDS011;63741;42.624;26.276;2022-12-26T08:20:53;13.32;;;6.15;;
74957;SDS011;63741;42.624;26.276;2022-12-26T08:23:20;35.45;;;5.22;;
74957;SDS011;63741;42.624;26.276;2022-12-26T08:25:47;181.30;;;19.45;;
74957;SDS011;63741;42.624;26.276;2022-12-26T08:28:14;25.60;;;4.47;;
74957;SDS011;63741;42.624;26.276;2022-12-26T08:30:41;20.25;;;5.03;;
74957;SDS011;63741;42.624;26.276;2022-12-26T08:33:08;29.98;;;5.30;;
74957;SDS011;63741;42.624;26.276;2022-12-26T08:35:37;16.33;;;3.80;;
74957;SDS011;63741;42.624;26.276;2022-12-26T08:38:05;14.13;;;3.33;;
74957;SDS011;63741;42.624;26.276;2022-12-26T08:40:32;12.40;;;3.50;;
74957;SDS011;63741;42.624;26.276;2022-12-26T08:43:09;17.52;;;3.25;;
74957;SDS011;63741;42.624;26.276;2022-12-26T08:46:10;11.15;;;3.08;;
74957;SDS011;63741;42.624;26.276;2022-12-26T08:48:38;6.88;;;2.88;;
74957;SDS011;63741;42.624;26.276;2022-12-26T08:51:07;11.52;;;3.13;;
74957;SDS011;63741;42.624;26.276;2022-12-26T08:53:46;12.25;;;2.42;;
74957;SDS011;63741;42.624;26.276;2022-12-26T08:56:16;8.70;;;2.92;;
74957;SDS011;63741;42.624;26.276;2022-12-26T08:58:45;11.85;;;2.97;;
74957;SDS011;63741;42.624;26.276;2022-12-26T09:01:20;12.35;;;3.30;;
74957;SDS011;63741;42.624;26.276;2022-12-26T09:03:55;10.85;;;3.60;;
74957;SDS011;63741;42.624;26.276;2022-12-26T09:06:28;7.93;;;2.83;;
74957;SDS011;63741;42.624;26.276;2022-12-26T09:08:58;7.05;;;3.05;;
74957;SDS011;63741;42.624;26.276;2022-12-26T09:11:26;9.32;;;2.95;;
74957;SDS011;63741;42.624;26.276;2022-12-26T09:13:54;5.13;;;2.67;;
74957;SDS011;63741;42.624;26.276;2022-12-26T09:16:25;26.15;;;4.75;;
74957;SDS011;63741;42.624;26.276;2022-12-26T09:19:01;17.17;;;3.47;;
74957;SDS011;63741;42.624;26.276;2022-12-26T09:21:29;10.80;;;3.50;;
74957;SDS011;63741;42.624;26.276;2022-12-26T09:23:57;9.90;;;3.20;;
74957;SDS011;63741;42.624;26.276;2022-12-26T09:26:28;10.38;;;2.83;;
74957;SDS011;63741;42.624;26.276;2022-12-26T09:28:56;8.18;;;2.92;;
74957;SDS011;63741;42.624;26.276;2022-12-26T09:31:25;11.55;;;3.00;;
74957;SDS011;63741;42.624;26.276;2022-12-26T09:33:57;10.43;;;3.00;;
74957;SDS011;63741;42.624;26.276;2022-12-26T09:36:27;15.77;;;3.88;;
74957;SDS011;63741;42.624;26.276;2022-12-26T09:38:56;9.10;;;3.30;;
74957;SDS011;63741;42.624;26.276;2022-12-26T09:49:15;9.60;;;3.88;;
74957;SDS011;63741;42.624;26.276;2022-12-26T09:51:52;13.93;;;3.75;;
74957;SDS011;63741;42.624;26.276;2022-12-26T09:56:59;12.00;;;3.78;;
74957;SDS011;63741;42.624;26.276;2022-12-26T09:59:36;11.57;;;4.07;;
74957;SDS011;63741;42.624;26.276;2022-12-26T10:02:15;9.55;;;3.63;;
74957;SDS011;63741;42.624;26.276;2022-12-26T10:04:48;7.05;;;4.05;;
74957;SDS011;63741;42.624;26.276;2022-12-26T10:07:18;11.80;;;3.70;;
74957;SDS011;63741;42.624;26.276;2022-12-26T10:10:00;7.95;;;3.58;;
74957;SDS011;63741;42.624;26.276;2022-12-26T10:12:41;11.00;;;3.60;;
74957;SDS011;63741;42.624;26.276;2022-12-26T10:15:26;25.48;;;4.70;;
74957;SDS011;63741;42.624;26.276;2022-12-26T10:23:47;10.20;;;3.42;;
74957;SDS011;63741;42.624;26.276;2022-12-26T10:31:37;11.73;;;4.13;;
74957;SDS011;63741;42.624;26.276;2022-12-26T10:39:27;10.88;;;3.13;;
74957;SDS011;63741;42.624;26.276;2022-12-26T10:42:07;13.48;;;3.13;;
74957;SDS011;63741;42.624;26.276;2022-12-26T10:44:40;5.88;;;2.80;;
74957;SDS011;63741;42.624;26.276;2022-12-26T10:49:55;4.68;;;2.75;;
74957;SDS011;63741;42.624;26.276;2022-12-26T10:52:29;8.20;;;2.90;;
74957;SDS011;63741;42.624;26.276;2022-12-26T10:55:00;6.75;;;3.00;;
74957;SDS011;63741;42.624;26.276;2022-12-26T10:57:47;9.05;;;2.70;;
74957;SDS011;63741;42.624;26.276;2022-12-26T11:05:46;9.90;;;2.78;;
74957;SDS011;63741;42.624;26.276;2022-12-26T11:08:45;24.45;;;3.50;;
74957;SDS011;63741;42.624;26.276;2022-12-26T11:11:25;7.18;;;2.60;;
74957;SDS011;63741;42.624;26.276;2022-12-26T11:17:04;5.93;;;2.90;;
74957;SDS011;63741;42.624;26.276;2022-12-26T11:20:08;19.67;;;3.20;;
74957;SDS011;63741;42.624;26.276;2022-12-26T11:22:35;5.72;;;2.55;;
74957;SDS011;63741;42.624;26.276;2022-12-26T11:27:36;6.65;;;2.60;;
74957;SDS011;63741;42.624;26.276;2022-12-26T11:30:14;12.63;;;2.85;;
74957;SDS011;63741;42.624;26.276;2022-12-26T11:32:44;8.60;;;3.08;;
74957;SDS011;63741;42.624;26.276;2022-12-26T11:35:21;6.00;;;2.63;;
74957;SDS011;63741;42.624;26.276;2022-12-26T11:37:50;9.95;;;2.70;;
74957;SDS011;63741;42.624;26.276;2022-12-26T11:40:23;11.80;;;3.00;;
74957;SDS011;63741;42.624;26.276;2022-12-26T11:42:54;14.30;;;3.05;;
74957;SDS011;63741;42.624;26.276;2022-12-26T11:45:25;4.85;;;2.20;;
74957;SDS011;63741;42.624;26.276;2022-12-26T11:48:02;4.18;;;2.25;;
74957;SDS011;63741;42.624;26.276;2022-12-26T11:50:44;5.38;;;2.70;;
74957;SDS011;63741;42.624;26.276;2022-12-26T11:53:14;4.03;;;2.50;;
74957;SDS011;63741;42.624;26.276;2022-12-26T11:55:43;8.57;;;2.60;;
74957;SDS011;63741;42.624;26.276;2022-12-26T12:00:39;8.50;;;2.80;;
74957;SDS011;63741;42.624;26.276;2022-12-26T12:11:53;31.70;;;3.85;;
74957;SDS011;63741;42.624;26.276;2022-12-26T12:14:44;7.50;;;3.17;;
74957;SDS011;63741;42.624;26.276;2022-12-26T12:30:54;8.50;;;2.67;;
74957;SDS011;63741;42.624;26.276;2022-12-26T12:42:26;5.00;;;2.78;;
74957;SDS011;63741;42.624;26.276;2022-12-26T12:45:19;4.72;;;2.67;;
74957;SDS011;63741;42.624;26.276;2022-12-26T12:48:31;8.63;;;2.65;;
74957;SDS011;63741;42.624;26.276;2022-12-26T13:02:38;7.38;;;2.05;;
74957;SDS011;63741;42.624;26.276;2022-12-26T13:08:01;5.72;;;2.10;;
74957;SDS011;63741;42.624;26.276;2022-12-26T13:10:34;3.97;;;2.08;;
74957;SDS011;63741;42.624;26.276;2022-12-26T13:13:11;4.65;;;2.10;;
74957;SDS011;63741;42.624;26.276;2022-12-26T13:15:46;8.48;;;2.10;;
74957;SDS011;63741;42.624;26.276;2022-12-26T13:18:21;7.22;;;2.30;;
74957;SDS011;63741;42.624;26.276;2022-12-26T13:20:53;7.05;;;2.00;;
74957;SDS011;63741;42.624;26.276;2022-12-26T13:23:39;7.38;;;2.28;;
74957;SDS011;63741;42.624;26.276;2022-12-26T13:26:34;7.47;;;2.55;;
74957;SDS011;63741;42.624;26.276;2022-12-26T13:32:24;4.05;;;2.03;;
74957;SDS011;63741;42.624;26.276;2022-12-26T13:34:54;9.40;;;2.33;;
74957;SDS011;63741;42.624;26.276;2022-12-26T13:40:05;6.78;;;2.30;;
74957;SDS011;63741;42.624;26.276;2022-12-26T13:42:43;5.82;;;2.17;;
74957;SDS011;63741;42.624;26.276;2022-12-26T13:48:45;7.53;;;2.22;;
74957;SDS011;63741;42.624;26.276;2022-12-26T13:51:02;6.25;;;2.30;;
74957;SDS011;63741;42.624;26.276;2022-12-26T13:53:32;18.52;;;3.38;;
74957;SDS011;63741;42.624;26.276;2022-12-26T13:56:11;8.75;;;2.50;;
74957;SDS011;63741;42.624;26.276;2022-12-26T13:59:20;10.63;;;3.83;;
74957;SDS011;63741;42.624;26.276;2022-12-26T14:05:22;8.07;;;3.53;;
74957;SDS011;63741;42.624;26.276;2022-12-26T14:16:34;5.13;;;2.63;;
74957;SDS011;63741;42.624;26.276;2022-12-26T14:22:17;9.88;;;4.18;;
74957;SDS011;63741;42.624;26.276;2022-12-26T14:24:59;13.45;;;5.57;;
74957;SDS011;63741;42.624;26.276;2022-12-26T14:41:10;9.68;;;3.28;;
74957;SDS011;63741;42.624;26.276;2022-12-26T14:44:10;21.95;;;3.85;;
74957;SDS011;63741;42.624;26.276;2022-12-26T14:54:50;8.73;;;3.28;;
74957;SDS011;63741;42.624;26.276;2022-12-26T15:02:50;22.83;;;5.70;;
74957;SDS011;63741;42.624;26.276;2022-12-26T15:05:40;58.53;;;6.95;;
74957;SDS011;63741;42.624;26.276;2022-12-26T15:33:19;70.38;;;25.95;;
74957;SDS011;63741;42.624;26.276;2022-12-26T15:35:54;76.05;;;23.85;;
74957;SDS011;63741;42.624;26.276;2022-12-26T15:41:15;89.93;;;27.48;;
74957;SDS011;63741;42.624;26.276;2022-12-26T15:46:34;72.22;;;29.92;;
74957;SDS011;63741;42.624;26.276;2022-12-26T15:58:28;73.50;;;30.48;;
74957;SDS011;63741;42.624;26.276;2022-12-26T16:01:10;77.32;;;33.65;;
74957;SDS011;63741;42.624;26.276;2022-12-26T16:06:23;299.27;;;89.55;;
74957;SDS011;63741;42.624;26.276;2022-12-26T16:11:53;698.63;;;310.52;;
74957;SDS011;63741;42.624;26.276;2022-12-26T16:19:34;104.40;;;38.50;;
74957;SDS011;63741;42.624;26.276;2022-12-26T16:22:02;102.78;;;36.78;;
74957;SDS011;63741;42.624;26.276;2022-12-26T16:24:51;93.10;;;36.65;;
74957;SDS011;63741;42.624;26.276;2022-12-26T16:27:21;94.10;;;37.33;;
74957;SDS011;63741;42.624;26.276;2022-12-26T16:30:00;81.47;;;37.53;;
74957;SDS011;63741;42.624;26.276;2022-12-26T16:32:37;122.07;;;34.50;;
74957;SDS011;63741;42.624;26.276;2022-12-26T16:35:14;124.43;;;34.65;;
74957;SDS011;63741;42.624;26.276;2022-12-26T16:37:44;124.15;;;37.28;;
74957;SDS011;63741;42.624;26.276;2022-12-26T16:42:44;115.47;;;37.75;;
74957;SDS011;63741;42.624;26.276;2022-12-26T16:45:21;100.00;;;41.90;;
74957;SDS011;63741;42.624;26.276;2022-12-26T16:47:49;153.20;;;44.72;;
74957;SDS011;63741;42.624;26.276;2022-12-26T16:50:17;78.95;;;39.55;;
74957;SDS011;63741;42.624;26.276;2022-12-26T16:52:47;81.45;;;37.17;;
74957;SDS011;63741;42.624;26.276;2022-12-26T16:58:18;89.30;;;42.95;;
74957;SDS011;63741;42.624;26.276;2022-12-26T17:00:50;85.47;;;43.70;;
74957;SDS011;63741;42.624;26.276;2022-12-26T17:03:33;97.32;;;39.08;;
74957;SDS011;63741;42.624;26.276;2022-12-26T17:06:08;121.30;;;43.20;;
74957;SDS011;63741;42.624;26.276;2022-12-26T17:08:43;115.57;;;43.47;;
74957;SDS011;63741;42.624;26.276;2022-12-26T17:11:13;110.13;;;41.67;;
74957;SDS011;63741;42.624;26.276;2022-12-26T17:13:41;73.30;;;33.63;;
74957;SDS011;63741;42.624;26.276;2022-12-26T17:16:17;51.20;;;25.17;;
74957;SDS011;63741;42.624;26.276;2022-12-26T17:18:53;83.20;;;39.63;;
74957;SDS011;63741;42.624;26.276;2022-12-26T17:21:25;172.07;;;54.42;;
74957;SDS011;63741;42.624;26.276;2022-12-26T17:26:38;162.57;;;55.45;;
74957;SDS011;63741;42.624;26.276;2022-12-26T17:29:29;123.80;;;48.60;;
74957;SDS011;63741;42.624;26.276;2022-12-26T17:32:15;79.82;;;36.58;;
74957;SDS011;63741;42.624;26.276;2022-12-26T17:35:01;57.83;;;26.25;;
74957;SDS011;63741;42.624;26.276;2022-12-26T17:37:30;43.33;;;22.88;;
74957;SDS011;63741;42.624;26.276;2022-12-26T17:45:30;39.25;;;18.40;;
74957;SDS011;63741;42.624;26.276;2022-12-26T17:47:57;38.53;;;20.40;;
74957;SDS011;63741;42.624;26.276;2022-12-26T17:50:28;37.08;;;21.08;;
74957;SDS011;63741;42.624;26.276;2022-12-26T17:53:04;30.00;;;16.85;;
74957;SDS011;63741;42.624;26.276;2022-12-26T17:55:31;36.65;;;17.02;;
74957;SDS011;63741;42.624;26.276;2022-12-26T17:57:58;31.70;;;15.07;;
74957;SDS011;63741;42.624;26.276;2022-12-26T18:00:26;24.20;;;13.52;;
74957;SDS011;63741;42.624;26.276;2022-12-26T18:02:54;22.10;;;12.43;;
74957;SDS011;63741;42.624;26.276;2022-12-26T18:05:22;24.60;;;12.50;;
74957;SDS011;63741;42.624;26.276;2022-12-26T18:07:49;17.27;;;11.20;;
74957;SDS011;63741;42.624;26.276;2022-12-26T18:10:25;25.02;;;10.32;;
74957;SDS011;63741;42.624;26.276;2022-12-26T18:12:54;22.10;;;9.38;;
74957;SDS011;63741;42.624;26.276;2022-12-26T18:15:23;16.45;;;9.68;;
74957;SDS011;63741;42.624;26.276;2022-12-26T18:17:52;15.45;;;8.43;;
74957;SDS011;63741;42.624;26.276;2022-12-26T18:20:21;13.07;;;7.65;;
74957;SDS011;63741;42.624;26.276;2022-12-26T18:22:51;27.38;;;14.45;;
74957;SDS011;63741;42.624;26.276;2022-12-26T18:25:20;25.25;;;12.75;;
74957;SDS011;63741;42.624;26.276;2022-12-26T18:27:49;24.15;;;10.73;;
74957;SDS011;63741;42.624;26.276;2022-12-26T18:30:17;20.83;;;9.88;;
74957;SDS011;63741;42.624;26.276;2022-12-26T18:32:46;30.38;;;14.02;;
74957;SDS011;63741;42.624;26.276;2022-12-26T18:35:14;27.85;;;16.70;;
74957;SDS011;63741;42.624;26.276;2022-12-26T18:37:43;22.83;;;15.35;;
74957;SDS011;63741;42.624;26.276;2022-12-26T18:43:01;25.77;;;15.45;;
74957;SDS011;63741;42.624;26.276;2022-12-26T18:45:29;37.40;;;15.90;;
74957;SDS011;63741;42.624;26.276;2022-12-26T18:47:57;43.60;;;22.00;;
74957;SDS011;63741;42.624;26.276;2022-12-26T18:50:25;41.65;;;24.05;;
74957;SDS011;63741;42.624;26.276;2022-12-26T18:52:53;76.93;;;53.78;;
74957;SDS011;63741;42.624;26.276;2022-12-26T18:55:21;84.70;;;54.88;;
74957;SDS011;63741;42.624;26.276;2022-12-26T18:57:49;73.78;;;49.28;;
74957;SDS011;63741;42.624;26.276;2022-12-26T19:00:17;70.00;;;45.05;;
74957;SDS011;63741;42.624;26.276;2022-12-26T19:02:45;61.53;;;38.40;;
74957;SDS011;63741;42.624;26.276;2022-12-26T19:05:18;58.10;;;39.88;;
74957;SDS011;63741;42.624;26.276;2022-12-26T19:07:47;42.25;;;30.35;;
74957;SDS011;63741;42.624;26.276;2022-12-26T19:10:16;30.85;;;23.15;;
74957;SDS011;63741;42.624;26.276;2022-12-26T19:12:44;31.85;;;21.55;;
74957;SDS011;63741;42.624;26.276;2022-12-26T19:15:12;35.78;;;24.58;;
74957;SDS011;63741;42.624;26.276;2022-12-26T19:17:39;36.83;;;23.50;;
74957;SDS011;63741;42.624;26.276;2022-12-26T19:20:09;38.83;;;23.67;;
74957;SDS011;63741;42.624;26.276;2022-12-26T19:22:43;28.67;;;17.27;;
74957;SDS011;63741;42.624;26.276;2022-12-26T19:25:11;24.98;;;14.45;;
74957;SDS011;63741;42.624;26.276;2022-12-26T19:27:39;23.05;;;12.63;;
74957;SDS011;63741;42.624;26.276;2022-12-26T19:30:06;22.20;;;13.68;;
74957;SDS011;63741;42.624;26.276;2022-12-26T19:32:33;26.00;;;14.60;;
74957;SDS011;63741;42.624;26.276;2022-12-26T19:35:00;21.25;;;12.82;;